Data for 04/02/2005

Time Sea-Level Adjusted Pressure Absolute Pressure Temperature Relative Humidity Dew Point   
(mb) (inHg) (mb) (inHg) (C) (F) (%) (C) (F)
00:05 1016 30 845 24.95 8.8 47.8 35 -6 21.3
00:10 1016 30 846 24.98 8.9 48.1 34 -6 21.2
00:15 1016 30 846 24.98 8.8 47.9 35 -5.8 21.6
00:20 1016 30 845 24.95 8.8 47.8 35 -5.9 21.4
00:25 1016 30 845 24.95 8.8 47.8 35 -5.8 21.5
00:30 1016 30 845 24.95 8.5 47.3 36 -5.6 21.9
00:35 1016 30 845 24.95 8.3 47 37 -5.6 21.8
00:40 1016 30 845 24.95 8.2 46.7 38 -5.3 22.5
00:45 1016 30 845 24.95 8.1 46.5 37 -5.7 21.7
00:50 1016 30 845 24.95 8.1 46.6 37 -5.8 21.6
00:55 1016 30 845 24.95 8 46.4 38 -5.3 22.5
01:00 1016 30 845 24.95 7.6 45.7 39 -5.3 22.4
01:05 1016 30 845 24.95 7.4 45.4 39 -5.5 22
01:10 1016 30 845 24.95 7.3 45.2 40 -5.5 22.1
01:15 1016 30 845 24.95 7.9 46.2 36 -6.3 20.6
01:20 1016 30 845 24.95 8 46.4 37 -5.9 21.4
01:25 1016 30 845 24.95 7.9 46.2 35 -6.5 20.4
01:30 1016 30 845 24.95 8.1 46.5 35 -6.4 20.5
01:35 1016 30 845 24.95 8.2 46.7 35 -6.5 20.4
01:40 1016 30 845 24.95 8 46.5 36 -6.1 21
01:45 1016 30 845 24.95 7.9 46.3 35 -6.5 20.2
01:50 1016 30 845 24.95 8 46.3 35 -6.6 20.1
01:55 1016 30 845 24.95 8 46.5 35 -6.7 20
02:00 1016 30 845 24.95 8.1 46.5 35 -6.4 20.4
02:05 1016 30 845 24.95 7.9 46.2 35 -6.5 20.4
02:10 1016 30 845 24.95 7.9 46.2 35 -6.6 20.2
02:15 1016 30 845 24.95 7.8 46.1 36 -6.4 20.6
02:20 1016 30 845 24.95 7.7 45.9 36 -6.6 20.1
02:25 1016 30 845 24.95 7.7 45.8 37 -6.3 20.7
02:30 1016 30 845 24.95 7.5 45.5 36 -6.6 20.2
02:35 1016 30 845 24.95 7.6 45.6 35 -6.8 19.8
02:40 1016 30 845 24.95 7.6 45.7 36 -6.6 20.1
02:45 1016 30 845 24.95 7.3 45.2 37 -6.5 20.2
02:50 1016 30 845 24.95 7.2 45 35 -7.2 19
02:55 1016 30 845 24.95 7.3 45.1 36 -6.8 19.7
03:00 1016 30 845 24.95 7.2 44.9 35 -7.2 19.1
03:05 1016 30 845 24.95 7.4 45.4 34 -7.4 18.7
03:10 1016 30 845 24.95 7.7 45.9 33 -7.4 18.7
03:15 1016 30 846 24.98 7.7 45.9 34 -7.2 19.1
03:20 1016 30 846 24.98 7.5 45.5 35 -7 19.4
03:25 1016 30 846 24.98 7.4 45.3 35 -7 19.3
03:30 1016 30 846 24.98 7.3 45.2 36 -6.9 19.6
03:35 1016 30 846 24.98 7.2 44.9 36 -6.9 19.6
03:40 1016 30 846 24.98 7.2 44.9 36 -6.9 19.6
03:45 1016 30 846 24.98 7.3 45.2 35 -7 19.4
03:50 1016 30 846 24.98 7.3 45.1 36 -6.7 19.9
03:55 1016 30 846 24.98 7.2 44.9 36 -6.8 19.7
04:00 1016 30 846 24.98 7.4 45.4 35 -7 19.4
04:05 1016 30 846 24.98 7.6 45.6 35 -6.8 19.8
04:10 1016 30 846 24.98 7.4 45.3 37 -6.5 20.3
04:15 1016 30 846 24.98 7.2 44.9 38 -6.1 21.1
04:20 1016 30 846 24.98 6.7 44 40 -5.9 21.4
04:25 1016 30 846 24.98 6.1 42.9 41 -6.1 21
04:30 1016 30 846 24.98 6.4 43.4 39 -6.5 20.3
04:35 1016 30 846 24.98 6.7 44 40 -6.1 20.9
04:40 1016 30 846 24.98 6.6 43.9 39 -6.2 20.8
04:45 1016 30 845 24.95 6.7 44.1 39 -6.3 20.6
04:50 1016 30 845 24.95 6.7 44.1 40 -6.1 21.1
04:55 1016 30 845 24.95 6.4 43.5 41 -5.8 21.6
05:00 1016 30 845 24.95 6.1 43.1 41 -6.2 20.9
05:05 1016 30 845 24.95 6.2 43.2 40 -6.3 20.7
05:10 1016 30 845 24.95 6.2 43.1 41 -6.2 20.8
05:15 1016 30 845 24.95 6 42.8 42 -6 21.3
05:20 1016 30 845 24.95 5 41 46 -5.5 22.1
05:25 1016 30 845 24.95 4.7 40.5 45 -6.3 20.7
05:30 1016 30 845 24.95 4.6 40.4 47 -5.6 21.9
05:35 1016 30 845 24.95 4.3 39.7 47 -6.1 21.1
05:40 1016 30 845 24.95 4.4 39.9 47 -6 21.1
05:45 1016 30 845 24.95 4.6 40.3 45 -6.2 20.9
05:50 1016 30 845 24.95 4.7 40.5 44 -6.4 20.4
05:55 1016 30 845 24.95 4.9 40.8 46 -5.9 21.4
06:00 1016 30 845 24.95 4 39.2 50 -5.4 22.2
06:05 1016 30 845 24.95 3.5 38.2 54 -5 22.9
06:10 1016 30 845 24.95 3.2 37.8 53 -5.4 22.3
06:15 1016 30 846 24.98 3 37.4 55 -5.2 22.6
06:20 1016 30 846 24.98 2.8 37 54 -5.6 21.9
06:25 1016 30 846 24.98 3.8 38.9 44 -7.2 19.1
06:30 1016 30 846 24.98 5.7 42.2 38 -7.7 18.2
06:35 1016 30 846 24.98 6.4 43.6 35 -7.9 17.8
06:40 1016 30 846 24.98 6.8 44.2 35 -7.5 18.6
06:45 1016 30 846 24.98 6.7 44 35 -7.7 18.1
06:50 1016 30 845 24.95 6.7 44.1 35 -7.7 18.1
06:55 1016 30 845 24.95 6.9 44.4 35 -7.6 18.3
07:00 1016 30 845 24.95 6.9 44.5 35 -7.4 18.6
07:05 1016 30 845 24.95 7 44.6 35 -7.4 18.7
07:10 1016 30 845 24.95 7.1 44.8 35 -7.4 18.7
07:15 1016 30 846 24.98 7.3 45.1 35 -7.3 18.8
07:20 1016 30 846 24.98 7.6 45.8 34 -7.1 19.1
07:25 1016 30 846 24.98 7.9 46.3 33 -7.3 18.9
07:30 1016 30 846 24.98 8.2 46.7 33 -7.1 19.2
07:35 1016 30 846 24.98 8.2 46.8 33 -7 19.4
07:40 1016 30 846 24.98 8.1 46.7 33 -7 19.3
07:45 1016 30 846 24.98 8.1 46.6 33 -7.3 18.8
07:50 1016 30 846 24.98 8.2 46.7 32 -7.7 18.1
07:55 1016 30 846 24.98 8.6 47.5 30 -8 17.6
08:00 1016 30 846 24.98 8.9 47.9 30 -7.8 18
08:05 1016 30 846 24.98 9.2 48.6 30 -7.6 18.3
08:10 1016 30 846 24.98 9.6 49.2 30 -7.4 18.8
08:15 1016 30 846 24.98 9.9 49.9 28 -7.7 18.1
08:20 1016 30 845 24.95 10.4 50.8 28 -7.5 18.5
08:25 1016 30 845 24.95 11 51.7 27 -7.3 18.8
08:30 1016 30 845 24.95 11.2 52.1 26 -7.5 18.6
08:35 1016 30 845 24.95 11 51.8 27 -7.5 18.6
08:40 1016 30 845 24.95 11.2 52.1 26 -7.4 18.7
08:45 1016 30 845 24.95 11.3 52.4 27 -7 19.5
08:50 1016 30 845 24.95 11.3 52.4 27 -7.2 19.1
08:55 1016 30 845 24.95 10.9 51.6 27 -7.5 18.4
09:00 1016 30 845 24.95 10.8 51.4 27 -7.6 18.3
09:05 1016 30 845 24.95 11 51.8 26 -8 17.6
09:10 1016 30 845 24.95 11.1 52 25 -8.1 17.5
09:15 1016 30 845 24.95 10.8 51.4 26 -8.2 17.3
09:20 1016 30 845 24.95 11.2 52.1 25 -8.2 17.3
09:25 1016 30 845 24.95 11.8 53.3 24 -7.9 17.8
09:30 1016 30 845 24.95 11.8 53.2 26 -7.2 19
09:35 1016 30 845 24.95 11.1 51.9 26 -7.7 18.2
09:40 1016 30 845 24.95 11.8 53.2 24 -7.9 17.8
09:45 1016 30 845 24.95 12.5 54.4 24 -7.7 18.2
09:50 1016 30 845 24.95 12.7 54.9 22 -8.1 17.4
09:55 1016 30 845 24.95 13.3 55.9 22 -7.7 18.1
10:00 1016 30 845 24.95 12.9 55.2 24 -7.3 18.8
10:05 1016 30 845 24.95 11.9 53.4 24 -8 17.6
10:10 1016 30 845 24.95 11.8 53.2 24 -8 17.6
10:15 1015 29.97 845 24.95 12.2 53.9 22 -8.7 16.3
10:20 1015 29.97 845 24.95 12.5 54.4 23 -8.2 17.2
10:25 1015 29.97 845 24.95 12.4 54.4 23 -8.1 17.5
10:30 1015 29.97 844 24.92 12.4 54.4 22 -8.4 16.9
10:35 1015 29.97 844 24.92 12.3 54.2 22 -8.5 16.7
10:40 1015 29.97 844 24.92 12.8 55.1 21 -8.7 16.3
10:45 1015 29.97 844 24.92 13.3 55.9 21 -8.4 16.9
10:50 1015 29.97 844 24.92 13.5 56.3 20 -9 15.9
10:55 1015 29.97 844 24.92 13.3 55.9 21 -8.8 16.2
11:00 1015 29.97 844 24.92 13.5 56.3 21 -8.5 16.6
11:05 1015 29.97 844 24.92 13.5 56.2 21 -8.3 17
11:10 1015 29.97 844 24.92 13.9 57.1 19 -9.2 15.5
11:15 1015 29.97 844 24.92 14 57.3 21 -8.2 17.3
11:20 1014 29.94 844 24.92 14.2 57.5 20 -8.4 16.9
11:25 1014 29.94 844 24.92 14.2 57.6 20 -8.5 16.8
11:30 1014 29.94 844 24.92 13.9 57.1 20 -8.6 16.5
11:35 1014 29.94 844 24.92 13.8 56.9 20 -8.4 16.8
11:40 1014 29.94 844 24.92 13.4 56.1 22 -8.2 17.3
11:45 1014 29.94 844 24.92 13.2 55.7 22 -8.4 17
11:50 1014 29.94 843 24.89 13.1 55.6 21 -8.7 16.4
11:55 1014 29.94 843 24.89 13.6 56.5 21 -8.2 17.2
12:00 1014 29.94 843 24.89 13.9 57.1 20 -8.4 16.8
12:05 1014 29.94 843 24.89 13.4 56.1 21 -8.6 16.6
12:10 1014 29.94 843 24.89 13.8 56.9 21 -7.9 17.7
12:15 1014 29.94 843 24.89 14.4 57.9 19 -9 15.8
12:20 1014 29.94 843 24.89 14.1 57.4 20 -8.4 17
12:25 1014 29.94 843 24.89 14.3 57.7 19 -8.7 16.3
12:30 1014 29.94 843 24.89 14.5 58 20 -8.1 17.5
12:35 1014 29.94 843 24.89 14.3 57.7 21 -7.7 18.2
12:40 1014 29.94 843 24.89 14.2 57.6 19 -9 15.8
12:45 1014 29.94 843 24.89 14 57.2 19 -8.9 16
12:50 1014 29.94 843 24.89 14.3 57.7 20 -8.6 16.6
12:55 1014 29.94 843 24.89 14.5 58.1 20 -8 17.6
13:00 1014 29.94 843 24.89 14.3 57.7 20 -8.4 16.9
13:05 1014 29.94 843 24.89 14 57.3 19 -9 15.8
13:10 1014 29.94 843 24.89 14 57.2 20 -8.7 16.3
13:15 1013 29.91 843 24.89 14.9 58.9 18 -9 15.7
13:20 1013 29.91 843 24.89 15 58.9 19 -8.1 17.3
13:25 1013 29.91 843 24.89 14.6 58.4 19 -8.9 15.9
13:30 1013 29.91 843 24.89 14.8 58.6 18 -9.1 15.7
13:35 1013 29.91 842 24.86 15 59.1 17 -10.1 13.8
13:40 1013 29.91 842 24.86 14.6 58.2 16 -10.9 12.4
13:45 1013 29.91 842 24.86 14.6 58.4 17 -10 13.9
13:50 1013 29.91 842 24.86 14.6 58.3 19 -8.8 16.1
13:55 1013 29.91 842 24.86 14.5 58.2 18 -9.4 15.1
14:00 1013 29.91 842 24.86 14.8 58.6 19 -8.9 16.1
14:05 1013 29.91 842 24.86 14.3 57.8 19 -8.7 16.4
14:10 1013 29.91 842 24.86 14.4 57.9 18 -9.8 14.4
14:15 1013 29.91 842 24.86 14.6 58.2 18 -9.4 15
14:20 1013 29.91 842 24.86 15.1 59.2 17 -9.5 14.9
14:25 1013 29.91 842 24.86 14.7 58.5 18 -9.2 15.4
14:30 1013 29.91 842 24.86 14.9 58.8 18 -9.1 15.6
14:35 1013 29.91 842 24.86 14.8 58.7 19 -8.5 16.7
14:40 1013 29.91 842 24.86 14.7 58.5 18 -9.5 14.9
14:45 1012 29.88 842 24.86 14.7 58.5 18 -9.4 15.1
14:50 1012 29.88 842 24.86 15.3 59.5 19 -8 17.6
14:55 1012 29.88 842 24.86 15 59 18 -8.8 16.1
15:00 1012 29.88 842 24.86 14.4 58 20 -8.3 17
15:05 1012 29.88 842 24.86 14.4 57.9 20 -8.3 17
15:10 1012 29.88 841 24.83 14.8 58.6 19 -8.3 17
15:15 1012 29.88 841 24.83 14.5 58.2 21 -7.7 18.2
15:20 1012 29.88 841 24.83 14.3 57.8 20 -8.2 17.2
15:25 1012 29.88 841 24.83 14 57.3 21 -8 17.6
15:30 1012 29.88 841 24.83 14.2 57.5 20 -8.6 16.5
15:35 1012 29.88 841 24.83 14.5 58.1 20 -7.9 17.8
15:40 1012 29.88 841 24.83 14.8 58.6 20 -8.2 17.3
15:45 1012 29.88 841 24.83 14.8 58.6 20 -7.7 18.2
15:50 1012 29.88 841 24.83 14.9 58.8 20 -7.7 18.1
15:55 1012 29.88 841 24.83 15 59 19 -8.3 17
16:00 1012 29.88 841 24.83 15.2 59.3 19 -8.2 17.3
16:05 1012 29.88 841 24.83 14.4 58 20 -8.2 17.2
16:10 1012 29.88 841 24.83 14.1 57.4 19 -8.9 16
16:15 1012 29.88 841 24.83 14.7 58.4 19 -8.7 16.3
16:20 1012 29.88 841 24.83 14.6 58.3 20 -8.1 17.4
16:25 1012 29.88 841 24.83 14.5 58.1 20 -8.3 17.1
16:30 1012 29.88 841 24.83 14.7 58.5 19 -8.8 16.2
16:35 1012 29.88 841 24.83 14.6 58.3 20 -8.3 17.1
16:40 1012 29.88 841 24.83 14.6 58.2 19 -9 15.8
16:45 1012 29.88 841 24.83 14.4 57.8 20 -8.6 16.6
16:50 1012 29.88 841 24.83 14.4 57.9 20 -8.3 17.1
16:55 1012 29.88 841 24.83 14.5 58.1 18 -9.3 15.2
17:00 1012 29.88 841 24.83 14.4 58 20 -8.1 17.5
17:05 1012 29.88 841 24.83 14.3 57.7 19 -8.8 16.2
17:10 1012 29.88 841 24.83 14.2 57.5 20 -8.6 16.5
17:15 1012 29.88 841 24.83 14.3 57.7 20 -8.6 16.5
17:20 1011 29.85 841 24.83 14 57.2 19 -9 15.7
17:25 1011 29.85 841 24.83 13.7 56.7 19 -9.3 15.2
17:30 1011 29.85 840 24.81 13.6 56.6 18 -9.9 14.2
17:35 1011 29.85 840 24.81 13.6 56.6 19 -9.6 14.8
17:40 1011 29.85 840 24.81 13.7 56.6 20 -8.8 16.2
17:45 1011 29.85 840 24.81 13.6 56.4 21 -8.5 16.7
17:50 1011 29.85 840 24.81 13.4 56.2 23 -7.5 18.6
17:55 1011 29.85 840 24.81 13.3 56 22 -7.8 17.9
18:00 1011 29.85 840 24.81 13.3 55.9 22 -7.7 18.1
18:05 1011 29.85 840 24.81 13.2 55.7 23 -7.5 18.5
18:10 1011 29.85 840 24.81 13 55.4 23 -7.4 18.6
18:15 1011 29.85 840 24.81 12.9 55.2 23 -7.4 18.6
18:20 1011 29.85 840 24.81 12.8 55 24 -7.4 18.7
18:25 1011 29.85 840 24.81 12.5 54.6 24 -7.3 18.9
18:30 1011 29.85 840 24.81 12.5 54.4 25 -7.2 19.1
18:35 1011 29.85 840 24.81 12.5 54.5 24 -7.3 18.8
18:40 1011 29.85 840 24.81 12.7 54.9 24 -7.1 19.2
18:45 1011 29.85 840 24.81 12.6 54.7 23 -7.8 18
18:50 1011 29.85 840 24.81 12.5 54.5 23 -7.8 18
18:55 1011 29.85 840 24.81 12.3 54.2 24 -7.7 18.1
19:00 1011 29.85 840 24.81 12.3 54.1 23 -8.3 17
19:05 1011 29.85 840 24.81 12.3 54.2 23 -7.9 17.7
19:10 1011 29.85 840 24.81 12.2 54 24 -7.7 18.1
19:15 1010 29.83 840 24.81 11.8 53.3 25 -7.4 18.7
19:20 1010 29.83 840 24.81 11.6 52.8 27 -7 19.4
19:25 1010 29.83 840 24.81 11.2 52.2 27 -6.9 19.6
19:30 1010 29.83 840 24.81 11.1 51.9 27 -7.3 18.9
19:35 1010 29.83 840 24.81 11 51.7 27 -7.5 18.5
19:40 1010 29.83 840 24.81 10.9 51.6 27 -7.5 18.5
19:45 1010 29.83 840 24.81 10.8 51.4 28 -7 19.3
19:50 1010 29.83 840 24.81 10.6 51.1 28 -7 19.4
19:55 1010 29.83 840 24.81 10.4 50.7 29 -6.9 19.7
20:00 1010 29.83 840 24.81 10.1 50.2 30 -6.5 20.2
20:05 1010 29.83 840 24.81 9.8 49.6 31 -6.5 20.2
20:10 1010 29.83 840 24.81 9.6 49.4 31 -6.5 20.3
20:15 1010 29.83 840 24.81 9.4 48.9 32 -6.4 20.6
20:20 1010 29.83 840 24.81 9.3 48.8 31 -6.8 19.8
20:25 1010 29.83 839 24.78 9.6 49.2 31 -6.6 20.1
20:30 1010 29.83 840 24.81 9.5 49.2 31 -6.8 19.8
20:35 1010 29.83 839 24.78 9.6 49.2 31 -6.8 19.8
20:40 1010 29.83 839 24.78 9.8 49.6 30 -6.8 19.7
20:45 1010 29.83 839 24.78 9.7 49.5 31 -6.7 19.9
20:50 1010 29.83 839 24.78 9.6 49.3 31 -6.8 19.8
20:55 1010 29.83 839 24.78 9.5 49.2 31 -6.7 19.9
21:00 1010 29.83 839 24.78 9.4 49 32 -6.5 20.3
21:05 1010 29.83 839 24.78 9.3 48.7 32 -6.6 20.1
21:10 1010 29.83 839 24.78 9.3 48.7 32 -6.6 20.2
21:15 1010 29.83 839 24.78 9.4 48.8 32 -6.6 20
21:20 1010 29.83 839 24.78 9.5 49.1 31 -6.9 19.6
21:25 1010 29.83 839 24.78 9.6 49.2 31 -6.7 20
21:30 1010 29.83 839 24.78 9.1 48.3 32 -6.6 20.2
21:35 1010 29.83 839 24.78 8.7 47.7 34 -6.4 20.5
21:40 1010 29.83 839 24.78 8.3 46.9 35 -6.5 20.4
21:45 1010 29.83 839 24.78 8.1 46.5 35 -6.6 20.1
21:50 1010 29.83 839 24.78 7.9 46.3 35 -6.6 20.1
21:55 1010 29.83 839 24.78 7.8 46.1 36 -6.3 20.7
22:00 1010 29.83 839 24.78 7.8 46 37 -6.1 21.1
22:05 1010 29.83 839 24.78 7.5 45.5 36 -6.6 20.1
22:10 1010 29.83 839 24.78 7.6 45.6 36 -6.6 20.2
22:15 1010 29.83 839 24.78 7.6 45.7 37 -6.1 21.1
22:20 1010 29.83 839 24.78 7.5 45.5 37 -6.4 20.5
22:25 1010 29.83 839 24.78 7.4 45.3 37 -6.5 20.3
22:30 1010 29.83 839 24.78 7.4 45.2 38 -6 21.2
22:35 1010 29.83 839 24.78 7 44.7 39 -6 21.1
22:40 1010 29.83 839 24.78 6.7 44.1 40 -5.9 21.4
22:45 1010 29.83 839 24.78 6.5 43.7 39 -6.6 20.2
22:50 1010 29.83 839 24.78 6.8 44.3 37 -6.7 19.9
22:55 1010 29.83 839 24.78 7 44.6 36 -7.1 19.3
23:00 1010 29.83 839 24.78 7.2 44.9 37 -6.4 20.4
23:05 1010 29.83 839 24.78 6.8 44.2 38 -6.4 20.4
23:10 1010 29.83 839 24.78 6.8 44.3 38 -6.6 20.2
23:15 1010 29.83 839 24.78 7.3 45.1 38 -6 21.1
23:20 1010 29.83 839 24.78 6.7 44.1 40 -6.1 21.1
23:25 1010 29.83 839 24.78 6.4 43.5 41 -5.8 21.5
23:30 1010 29.83 839 24.78 6 42.8 41 -6.2 20.8
23:35 1010 29.83 839 24.78 5.9 42.7 41 -6.4 20.4
23:40 1010 29.83 839 24.78 6.3 43.4 38 -7 19.5
23:45 1010 29.83 839 24.78 6.6 43.9 39 -6.2 20.8
23:50 1010 29.83 839 24.78 6.3 43.4 41 -6.1 21
23:55 1010 29.83 839 24.78 5.9 42.6 41 -6.4 20.5
24:00 1010 29.83 839 24.78 5.9 42.7 40 -6.6 20.2